sensor_id;sensor_type;location;lat;lon;timestamp;pressure;altitude;pressure_sealevel;temperature;humidity
21290;BME280;10804;48.988;2.408;2023-05-23T00:01:03;101288.97;;;20.59;59.55
21290;BME280;10804;48.988;2.408;2023-05-23T00:03:31;101283.09;;;20.54;59.47
21290;BME280;10804;48.988;2.408;2023-05-23T00:06:01;101293.69;;;20.54;59.51
21290;BME280;10804;48.988;2.408;2023-05-23T00:08:29;101288.41;;;20.54;59.45
21290;BME280;10804;48.988;2.408;2023-05-23T00:10:57;101283.25;;;20.51;59.60
21290;BME280;10804;48.988;2.408;2023-05-23T00:13:24;101286.00;;;20.50;59.45
21290;BME280;10804;48.988;2.408;2023-05-23T00:15:51;101274.72;;;20.46;59.52
21290;BME280;10804;48.988;2.408;2023-05-23T00:18:19;101284.38;;;20.47;59.43
21290;BME280;10804;48.988;2.408;2023-05-23T00:20:46;101293.28;;;20.46;59.50
21290;BME280;10804;48.988;2.408;2023-05-23T00:23:16;101286.28;;;20.45;59.43
21290;BME280;10804;48.988;2.408;2023-05-23T00:25:46;101290.78;;;20.43;59.56
21290;BME280;10804;48.988;2.408;2023-05-23T00:28:17;101285.66;;;20.40;59.56
21290;BME280;10804;48.988;2.408;2023-05-23T00:30:46;101277.13;;;20.35;59.45
21290;BME280;10804;48.988;2.408;2023-05-23T00:33:18;101288.47;;;20.37;59.48
21290;BME280;10804;48.988;2.408;2023-05-23T00:35:47;101294.72;;;20.36;59.50
21290;BME280;10804;48.988;2.408;2023-05-23T00:38:16;101290.38;;;20.35;59.42
21290;BME280;10804;48.988;2.408;2023-05-23T00:40:44;101285.16;;;20.34;59.58
21290;BME280;10804;48.988;2.408;2023-05-23T00:43:14;101284.50;;;20.30;59.48
21290;BME280;10804;48.988;2.408;2023-05-23T00:45:44;101285.34;;;20.31;59.62
21290;BME280;10804;48.988;2.408;2023-05-23T00:48:12;101288.94;;;20.30;59.80
21290;BME280;10804;48.988;2.408;2023-05-23T00:50:42;101283.81;;;20.27;59.54
21290;BME280;10804;48.988;2.408;2023-05-23T00:53:11;101279.53;;;20.24;59.46
21290;BME280;10804;48.988;2.408;2023-05-23T00:55:40;101278.84;;;20.21;59.51
21290;BME280;10804;48.988;2.408;2023-05-23T00:58:09;101269.47;;;20.16;59.54
21290;BME280;10804;48.988;2.408;2023-05-23T01:00:37;101262.44;;;20.14;59.62
21290;BME280;10804;48.988;2.408;2023-05-23T01:03:04;101278.19;;;20.17;59.41
21290;BME280;10804;48.988;2.408;2023-05-23T01:05:32;101270.22;;;20.17;59.55
21290;BME280;10804;48.988;2.408;2023-05-23T01:07:59;101270.22;;;20.17;59.74
21290;BME280;10804;48.988;2.408;2023-05-23T01:10:29;101268.59;;;20.15;59.62
21290;BME280;10804;48.988;2.408;2023-05-23T01:13:09;101268.69;;;20.13;59.55
21290;BME280;10804;48.988;2.408;2023-05-23T01:15:43;101276.81;;;20.11;59.54
21290;BME280;10804;48.988;2.408;2023-05-23T01:18:15;101275.09;;;20.10;59.69
21290;BME280;10804;48.988;2.408;2023-05-23T01:20:47;101276.13;;;20.07;59.62
21290;BME280;10804;48.988;2.408;2023-05-23T01:23:35;101281.50;;;20.06;59.64
21290;BME280;10804;48.988;2.408;2023-05-23T01:26:16;101278.84;;;20.06;59.75
21290;BME280;10804;48.988;2.408;2023-05-23T01:28:54;101281.66;;;20.02;59.75
21290;BME280;10804;48.988;2.408;2023-05-23T01:31:23;101284.28;;;20.02;59.68
21290;BME280;10804;48.988;2.408;2023-05-23T01:33:53;101289.66;;;20.01;59.61
21290;BME280;10804;48.988;2.408;2023-05-23T01:36:21;101285.38;;;19.98;59.73
21290;BME280;10804;48.988;2.408;2023-05-23T01:38:51;101287.19;;;19.98;59.84
21290;BME280;10804;48.988;2.408;2023-05-23T01:41:19;101288.22;;;19.96;59.81
21290;BME280;10804;48.988;2.408;2023-05-23T01:43:46;101290.94;;;19.94;59.74
21290;BME280;10804;48.988;2.408;2023-05-23T01:46:18;101289.31;;;19.92;59.79
21290;BME280;10804;48.988;2.408;2023-05-23T01:48:47;101293.84;;;19.90;59.82
21290;BME280;10804;48.988;2.408;2023-05-23T01:51:14;101288.56;;;19.90;59.79
21290;BME280;10804;48.988;2.408;2023-05-23T01:53:42;101281.53;;;19.89;59.92
21290;BME280;10804;48.988;2.408;2023-05-23T01:56:10;101286.91;;;19.87;59.84
21290;BME280;10804;48.988;2.408;2023-05-23T01:58:37;101277.38;;;19.85;59.87
21290;BME280;10804;48.988;2.408;2023-05-23T02:01:05;101278.28;;;19.84;59.77
21290;BME280;10804;48.988;2.408;2023-05-23T02:03:34;101273.19;;;19.81;59.83
21290;BME280;10804;48.988;2.408;2023-05-23T02:06:02;101273.19;;;19.81;59.85
21290;BME280;10804;48.988;2.408;2023-05-23T02:08:29;101285.66;;;19.79;59.69
21290;BME280;10804;48.988;2.408;2023-05-23T02:10:56;101280.50;;;19.76;59.79
21290;BME280;10804;48.988;2.408;2023-05-23T02:13:24;101283.16;;;19.76;59.81
21290;BME280;10804;48.988;2.408;2023-05-23T02:15:51;101289.38;;;19.75;59.86
21290;BME280;10804;48.988;2.408;2023-05-23T02:18:19;101295.63;;;19.74;59.88
21290;BME280;10804;48.988;2.408;2023-05-23T02:20:51;101288.63;;;19.73;59.68
21290;BME280;10804;48.988;2.408;2023-05-23T02:23:18;101290.50;;;19.71;59.78
21290;BME280;10804;48.988;2.408;2023-05-23T02:25:48;101294.09;;;19.70;59.87
21290;BME280;10804;48.988;2.408;2023-05-23T02:28:17;101304.91;;;19.65;59.92
21290;BME280;10804;48.988;2.408;2023-05-23T02:30:45;101300.47;;;19.66;59.75
21290;BME280;10804;48.988;2.408;2023-05-23T02:33:14;101297.06;;;19.64;59.81
21290;BME280;10804;48.988;2.408;2023-05-23T02:35:43;101302.34;;;19.64;59.98
21290;BME280;10804;48.988;2.408;2023-05-23T02:38:11;101297.31;;;19.59;59.85
21290;BME280;10804;48.988;2.408;2023-05-23T02:40:43;101296.38;;;19.60;59.98
21290;BME280;10804;48.988;2.408;2023-05-23T02:43:10;101293.81;;;19.59;59.92
21290;BME280;10804;48.988;2.408;2023-05-23T02:45:38;101292.09;;;19.58;59.98
21290;BME280;10804;48.988;2.408;2023-05-23T02:48:05;101299.28;;;19.56;59.90
21290;BME280;10804;48.988;2.408;2023-05-23T02:50:33;101301.13;;;19.54;59.96
21290;BME280;10804;48.988;2.408;2023-05-23T02:53:00;101299.41;;;19.53;60.12
21290;BME280;10804;48.988;2.408;2023-05-23T02:55:29;101306.59;;;19.51;60.01
21290;BME280;10804;48.988;2.408;2023-05-23T02:57:57;101303.94;;;19.51;59.89
21290;BME280;10804;48.988;2.408;2023-05-23T03:00:24;101303.25;;;19.47;60.09
21290;BME280;10804;48.988;2.408;2023-05-23T03:02:54;101310.34;;;19.47;59.98
21290;BME280;10804;48.988;2.408;2023-05-23T03:05:22;101306.75;;;19.48;60.02
21290;BME280;10804;48.988;2.408;2023-05-23T03:07:49;101311.25;;;19.46;59.90
21290;BME280;10804;48.988;2.408;2023-05-23T03:10:17;101308.78;;;19.43;60.04
21290;BME280;10804;48.988;2.408;2023-05-23T03:12:46;101307.06;;;19.42;60.11
21290;BME280;10804;48.988;2.408;2023-05-23T03:15:18;101315.09;;;19.40;59.99
21290;BME280;10804;48.988;2.408;2023-05-23T03:17:46;101316.78;;;19.41;60.08
21290;BME280;10804;48.988;2.408;2023-05-23T03:20:17;101315.25;;;19.37;59.97
21290;BME280;10804;48.988;2.408;2023-05-23T03:22:45;101316.25;;;19.35;60.02
21290;BME280;10804;48.988;2.408;2023-05-23T03:25:13;101318.97;;;19.33;60.10
21290;BME280;10804;48.988;2.408;2023-05-23T03:27:41;101342.72;;;19.35;60.00
21290;BME280;10804;48.988;2.408;2023-05-23T03:30:11;101325.97;;;19.34;60.16
21290;BME280;10804;48.988;2.408;2023-05-23T03:32:38;101328.88;;;19.30;60.04
21290;BME280;10804;48.988;2.408;2023-05-23T03:35:07;101331.63;;;19.28;60.11
21290;BME280;10804;48.988;2.408;2023-05-23T03:37:36;101335.97;;;19.29;60.08
21290;BME280;10804;48.988;2.408;2023-05-23T03:40:05;101340.47;;;19.27;60.12
21290;BME280;10804;48.988;2.408;2023-05-23T03:42:35;101335.25;;;19.26;59.98
21290;BME280;10804;48.988;2.408;2023-05-23T03:45:04;101328.34;;;19.23;59.94
21290;BME280;10804;48.988;2.408;2023-05-23T03:47:33;101336.34;;;19.22;60.16
21290;BME280;10804;48.988;2.408;2023-05-23T03:50:02;101336.34;;;19.22;60.24
21290;BME280;10804;48.988;2.408;2023-05-23T03:52:30;101344.38;;;19.20;60.20
21290;BME280;10804;48.988;2.408;2023-05-23T03:54:57;101334.78;;;19.18;60.20
21290;BME280;10804;48.988;2.408;2023-05-23T03:57:25;101332.19;;;19.16;60.19
21290;BME280;10804;48.988;2.408;2023-05-23T03:59:53;101331.50;;;19.13;60.10
21290;BME280;10804;48.988;2.408;2023-05-23T04:02:21;101336.78;;;19.13;60.25
21290;BME280;10804;48.988;2.408;2023-05-23T04:04:50;101330.66;;;19.12;60.14
21290;BME280;10804;48.988;2.408;2023-05-23T04:07:19;101335.09;;;19.12;60.09
21290;BME280;10804;48.988;2.408;2023-05-23T04:09:46;101327.31;;;19.09;60.04
21290;BME280;10804;48.988;2.408;2023-05-23T04:12:14;101330.03;;;19.07;60.28
21290;BME280;10804;48.988;2.408;2023-05-23T04:14:44;101324.81;;;19.06;60.28
21290;BME280;10804;48.988;2.408;2023-05-23T04:17:13;101343.31;;;19.06;60.31
21290;BME280;10804;48.988;2.408;2023-05-23T04:19:44;101332.91;;;19.03;60.11
21290;BME280;10804;48.988;2.408;2023-05-23T04:22:12;101339.13;;;19.02;60.27
21290;BME280;10804;48.988;2.408;2023-05-23T04:24:40;101340.06;;;19.01;60.36
21290;BME280;10804;48.988;2.408;2023-05-23T04:27:07;101335.63;;;19.01;60.35
21290;BME280;10804;48.988;2.408;2023-05-23T04:29:36;101349.06;;;18.97;60.24
21290;BME280;10804;48.988;2.408;2023-05-23T04:32:04;101347.38;;;18.96;60.33
21290;BME280;10804;48.988;2.408;2023-05-23T04:34:32;101343.00;;;18.95;60.33
21290;BME280;10804;48.988;2.408;2023-05-23T04:37:00;101351.94;;;18.92;60.21
21290;BME280;10804;48.988;2.408;2023-05-23T04:39:31;101358.06;;;18.93;60.25
21290;BME280;10804;48.988;2.408;2023-05-23T04:42:19;101353.81;;;18.90;60.30
21290;BME280;10804;48.988;2.408;2023-05-23T04:44:58;101362.59;;;18.91;60.13
21290;BME280;10804;48.988;2.408;2023-05-23T04:48:05;101358.31;;;18.88;60.31
21290;BME280;10804;48.988;2.408;2023-05-23T04:50:40;101354.81;;;18.88;60.28
21290;BME280;10804;48.988;2.408;2023-05-23T04:53:08;101354.06;;;18.86;60.23
21290;BME280;10804;48.988;2.408;2023-05-23T04:55:37;101361.19;;;18.84;60.39
21290;BME280;10804;48.988;2.408;2023-05-23T04:58:09;101361.19;;;18.84;60.42
21290;BME280;10804;48.988;2.408;2023-05-23T05:00:38;101363.06;;;18.82;60.42
21290;BME280;10804;48.988;2.408;2023-05-23T05:03:05;101357.00;;;18.80;60.43
21290;BME280;10804;48.988;2.408;2023-05-23T05:05:38;101364.91;;;18.80;60.18
21290;BME280;10804;48.988;2.408;2023-05-23T05:08:05;101365.75;;;18.80;60.29
21290;BME280;10804;48.988;2.408;2023-05-23T05:10:34;101379.13;;;18.77;60.30
21290;BME280;10804;48.988;2.408;2023-05-23T05:13:03;101368.72;;;18.74;60.14
21290;BME280;10804;48.988;2.408;2023-05-23T05:15:40;101367.78;;;18.75;60.26
21290;BME280;10804;48.988;2.408;2023-05-23T05:18:07;101371.38;;;18.74;60.31
21290;BME280;10804;48.988;2.408;2023-05-23T05:20:35;101374.00;;;18.74;60.23
21290;BME280;10804;48.988;2.408;2023-05-23T05:23:02;101365.22;;;18.74;60.30
21290;BME280;10804;48.988;2.408;2023-05-23T05:25:30;101368.03;;;18.71;60.34
21290;BME280;10804;48.988;2.408;2023-05-23T05:28:00;101360.09;;;18.71;60.34
21290;BME280;10804;48.988;2.408;2023-05-23T05:30:32;101362.63;;;18.72;60.39
21290;BME280;10804;48.988;2.408;2023-05-23T05:33:00;101363.63;;;18.70;60.23
21290;BME280;10804;48.988;2.408;2023-05-23T05:35:30;101365.66;;;18.65;60.21
21290;BME280;10804;48.988;2.408;2023-05-23T05:37:58;101369.09;;;18.67;60.37
21290;BME280;10804;48.988;2.408;2023-05-23T05:40:25;101376.94;;;18.68;60.19
21290;BME280;10804;48.988;2.408;2023-05-23T05:42:52;101376.25;;;18.65;60.11
21290;BME280;10804;48.988;2.408;2023-05-23T05:45:21;101370.03;;;18.66;60.36
21290;BME280;10804;48.988;2.408;2023-05-23T05:47:50;101384.41;;;18.60;60.15
21290;BME280;10804;48.988;2.408;2023-05-23T05:50:20;101389.38;;;18.66;60.20
21290;BME280;10804;48.988;2.408;2023-05-23T05:52:47;101385.94;;;18.64;60.26
21290;BME280;10804;48.988;2.408;2023-05-23T05:55:17;101393.88;;;18.64;60.09
21290;BME280;10804;48.988;2.408;2023-05-23T05:57:48;101392.16;;;18.63;60.20
21290;BME280;10804;48.988;2.408;2023-05-23T06:00:17;101377.47;;;18.58;60.20
21290;BME280;10804;48.988;2.408;2023-05-23T06:02:45;101384.53;;;18.57;60.17
21290;BME280;10804;48.988;2.408;2023-05-23T06:05:19;101390.50;;;18.61;60.15
21290;BME280;10804;48.988;2.408;2023-05-23T06:07:47;101389.69;;;18.60;60.25
21290;BME280;10804;48.988;2.408;2023-05-23T06:10:18;101395.78;;;18.61;60.17
21290;BME280;10804;48.988;2.408;2023-05-23T06:12:46;101394.97;;;18.60;60.06
21290;BME280;10804;48.988;2.408;2023-05-23T06:15:14;101396.78;;;18.58;60.20
21290;BME280;10804;48.988;2.408;2023-05-23T06:17:44;101398.53;;;18.59;60.26
21290;BME280;10804;48.988;2.408;2023-05-23T06:20:13;101395.97;;;18.58;60.22
21290;BME280;10804;48.988;2.408;2023-05-23T06:22:45;101398.59;;;18.58;60.24
21290;BME280;10804;48.988;2.408;2023-05-23T06:25:16;101399.53;;;18.57;60.14
21290;BME280;10804;48.988;2.408;2023-05-23T06:27:45;101394.38;;;18.54;60.20
21290;BME280;10804;48.988;2.408;2023-05-23T06:30:13;101396.03;;;18.56;60.32
21290;BME280;10804;48.988;2.408;2023-05-23T06:32:45;101403.94;;;18.56;60.00
21290;BME280;10804;48.988;2.408;2023-05-23T06:35:18;101407.47;;;18.57;60.12
21290;BME280;10804;48.988;2.408;2023-05-23T06:37:46;101416.22;;;18.57;60.29
21290;BME280;10804;48.988;2.408;2023-05-23T06:40:17;101406.69;;;18.55;60.13
21290;BME280;10804;48.988;2.408;2023-05-23T06:42:46;101410.22;;;18.54;60.06
21290;BME280;10804;48.988;2.408;2023-05-23T06:45:31;101412.09;;;18.52;60.16
21290;BME280;10804;48.988;2.408;2023-05-23T06:48:00;101422.59;;;18.53;60.13
21290;BME280;10804;48.988;2.408;2023-05-23T06:50:27;101421.72;;;18.53;60.08
21290;BME280;10804;48.988;2.408;2023-05-23T06:53:01;101416.72;;;18.47;59.95
21290;BME280;10804;48.988;2.408;2023-05-23T06:55:36;101425.38;;;18.50;59.98
21290;BME280;10804;48.988;2.408;2023-05-23T06:58:06;101439.38;;;18.52;60.04
21290;BME280;10804;48.988;2.408;2023-05-23T07:00:36;101433.22;;;18.52;60.13
21290;BME280;10804;48.988;2.408;2023-05-23T07:03:19;101440.22;;;18.53;60.06
21290;BME280;10804;48.988;2.408;2023-05-23T07:05:46;101431.69;;;18.48;60.12
21290;BME280;10804;48.988;2.408;2023-05-23T07:08:17;101435.03;;;18.51;60.04
21290;BME280;10804;48.988;2.408;2023-05-23T07:10:56;101439.44;;;18.51;60.17
21290;BME280;10804;48.988;2.408;2023-05-23T07:13:37;101449.13;;;18.50;60.13
21290;BME280;10804;48.988;2.408;2023-05-23T07:16:05;101439.59;;;18.48;60.02
21290;BME280;10804;48.988;2.408;2023-05-23T07:18:35;101441.53;;;18.44;60.14
21290;BME280;10804;48.988;2.408;2023-05-23T07:21:03;101431.19;;;18.40;60.01
21290;BME280;10804;48.988;2.408;2023-05-23T07:23:33;101448.31;;;18.50;59.98
21290;BME280;10804;48.988;2.408;2023-05-23T07:26:01;101450.94;;;18.50;59.96
21290;BME280;10804;48.988;2.408;2023-05-23T07:28:44;101461.56;;;18.48;60.02
21290;BME280;10804;48.988;2.408;2023-05-23T07:31:12;101454.66;;;18.46;59.98
21290;BME280;10804;48.988;2.408;2023-05-23T07:33:40;101465.09;;;18.49;59.93
21290;BME280;10804;48.988;2.408;2023-05-23T07:36:10;101466.84;;;18.48;59.95
21290;BME280;10804;48.988;2.408;2023-05-23T07:38:39;101470.38;;;18.49;59.87
21290;BME280;10804;48.988;2.408;2023-05-23T07:41:06;101468.72;;;18.46;59.92
21290;BME280;10804;48.988;2.408;2023-05-23T07:43:35;101464.44;;;18.44;59.94
21290;BME280;10804;48.988;2.408;2023-05-23T07:46:03;101468.66;;;18.48;59.96
21290;BME280;10804;48.988;2.408;2023-05-23T07:48:30;101472.09;;;18.50;59.92
21290;BME280;10804;48.988;2.408;2023-05-23T07:50:58;101479.13;;;18.49;59.90
21290;BME280;10804;48.988;2.408;2023-05-23T07:53:26;101473.00;;;18.49;59.84
21290;BME280;10804;48.988;2.408;2023-05-23T07:55:55;101475.66;;;18.49;59.92
21290;BME280;10804;48.988;2.408;2023-05-23T07:58:25;101475.66;;;18.49;59.88
21290;BME280;10804;48.988;2.408;2023-05-23T08:00:53;101476.59;;;18.48;60.02
21290;BME280;10804;48.988;2.408;2023-05-23T08:03:46;101479.22;;;18.48;59.86
21290;BME280;10804;48.988;2.408;2023-05-23T08:06:20;101484.63;;;18.45;59.82
21290;BME280;10804;48.988;2.408;2023-05-23T08:08:48;101483.69;;;18.46;59.87
21290;BME280;10804;48.988;2.408;2023-05-23T08:11:35;101488.00;;;18.48;59.85
21290;BME280;10804;48.988;2.408;2023-05-23T08:14:21;101485.50;;;18.45;59.82
21290;BME280;10804;48.988;2.408;2023-05-23T08:17:09;101486.44;;;18.44;59.98
21290;BME280;10804;48.988;2.408;2023-05-23T08:19:37;101492.44;;;18.48;59.77
21290;BME280;10804;48.988;2.408;2023-05-23T08:22:04;101497.06;;;18.43;59.78
21290;BME280;10804;48.988;2.408;2023-05-23T08:24:32;101488.97;;;18.46;59.95
21290;BME280;10804;48.988;2.408;2023-05-23T08:27:02;101491.50;;;18.49;59.67
21290;BME280;10804;48.988;2.408;2023-05-23T08:29:30;101489.91;;;18.45;59.75
21290;BME280;10804;48.988;2.408;2023-05-23T08:32:00;101495.06;;;18.48;59.79
21290;BME280;10804;48.988;2.408;2023-05-23T08:34:28;101495.06;;;18.48;59.85
21290;BME280;10804;48.988;2.408;2023-05-23T08:36:56;101495.06;;;18.48;59.67
21290;BME280;10804;48.988;2.408;2023-05-23T08:39:26;101498.56;;;18.48;59.67
21290;BME280;10804;48.988;2.408;2023-05-23T08:42:05;101493.28;;;18.48;59.80
21290;BME280;10804;48.988;2.408;2023-05-23T08:44:33;101493.34;;;18.47;59.74
21290;BME280;10804;48.988;2.408;2023-05-23T08:47:03;101503.00;;;18.48;59.78
21290;BME280;10804;48.988;2.408;2023-05-23T08:49:53;101500.38;;;18.48;59.72
21290;BME280;10804;48.988;2.408;2023-05-23T08:52:24;101497.72;;;18.48;59.77
21290;BME280;10804;48.988;2.408;2023-05-23T08:54:56;101500.38;;;18.48;59.81
21290;BME280;10804;48.988;2.408;2023-05-23T08:57:25;101504.72;;;18.49;59.71
21290;BME280;10804;48.988;2.408;2023-05-23T08:59:59;101502.06;;;18.49;59.60
21290;BME280;10804;48.988;2.408;2023-05-23T09:02:30;101507.34;;;18.49;59.55
21290;BME280;10804;48.988;2.408;2023-05-23T09:05:09;101502.06;;;18.49;59.66
21290;BME280;10804;48.988;2.408;2023-05-23T09:07:37;101509.06;;;18.50;59.61
21290;BME280;10804;48.988;2.408;2023-05-23T09:10:06;101495.28;;;18.43;59.75
21290;BME280;10804;48.988;2.408;2023-05-23T09:12:36;101504.63;;;18.50;59.61
21290;BME280;10804;48.988;2.408;2023-05-23T09:15:04;101501.09;;;18.51;59.67
21290;BME280;10804;48.988;2.408;2023-05-23T09:17:33;101501.09;;;18.51;59.61
21290;BME280;10804;48.988;2.408;2023-05-23T09:20:01;101509.91;;;18.50;59.53
21290;BME280;10804;48.988;2.408;2023-05-23T09:22:45;101509.84;;;18.52;59.67
21290;BME280;10804;48.988;2.408;2023-05-23T09:25:14;101508.19;;;18.49;59.44
21290;BME280;10804;48.988;2.408;2023-05-23T09:27:46;101514.19;;;18.53;59.38
21290;BME280;10804;48.988;2.408;2023-05-23T09:30:14;101517.78;;;18.52;59.46
21290;BME280;10804;48.988;2.408;2023-05-23T09:32:42;101527.34;;;18.54;59.45
21290;BME280;10804;48.988;2.408;2023-05-23T09:35:23;101517.66;;;18.55;59.70
21290;BME280;10804;48.988;2.408;2023-05-23T09:37:52;101525.56;;;18.55;59.50
21290;BME280;10804;48.988;2.408;2023-05-23T09:40:21;101524.66;;;18.56;59.41
21290;BME280;10804;48.988;2.408;2023-05-23T09:43:02;101521.06;;;18.57;59.51
21290;BME280;10804;48.988;2.408;2023-05-23T09:45:31;101516.84;;;18.53;59.52
21290;BME280;10804;48.988;2.408;2023-05-23T09:48:00;101523.84;;;18.54;59.47
21290;BME280;10804;48.988;2.408;2023-05-23T09:50:30;101524.50;;;18.59;59.45
21290;BME280;10804;48.988;2.408;2023-05-23T09:52:59;101519.22;;;18.59;59.30
21290;BME280;10804;48.988;2.408;2023-05-23T09:55:27;101529.00;;;18.57;59.35
21290;BME280;10804;48.988;2.408;2023-05-23T09:57:57;101526.47;;;18.54;59.47
21290;BME280;10804;48.988;2.408;2023-05-23T10:00:28;101518.50;;;18.55;59.42
21290;BME280;10804;48.988;2.408;2023-05-23T10:03:07;101536.06;;;18.56;59.54
21290;BME280;10804;48.988;2.408;2023-05-23T10:05:40;101521.19;;;18.54;59.46
21290;BME280;10804;48.988;2.408;2023-05-23T10:08:13;101527.19;;;18.57;59.14
21290;BME280;10804;48.988;2.408;2023-05-23T10:14:00;101530.72;;;18.58;59.33
21290;BME280;10804;48.988;2.408;2023-05-23T10:16:39;101519.47;;;18.53;59.46
21290;BME280;10804;48.988;2.408;2023-05-23T10:19:16;101529.78;;;18.59;59.41
21290;BME280;10804;48.988;2.408;2023-05-23T10:21:49;101515.78;;;18.57;59.33
21290;BME280;10804;48.988;2.408;2023-05-23T10:24:17;101522.78;;;18.58;59.37
21290;BME280;10804;48.988;2.408;2023-05-23T10:26:45;101523.72;;;18.57;59.38
21290;BME280;10804;48.988;2.408;2023-05-23T10:29:14;101520.09;;;18.59;59.22
21290;BME280;10804;48.988;2.408;2023-05-23T10:31:43;101503.72;;;18.51;59.29
21290;BME280;10804;48.988;2.408;2023-05-23T10:34:20;101508.63;;;18.59;59.22
21290;BME280;10804;48.988;2.408;2023-05-23T10:36:56;101516.41;;;18.62;59.29
21290;BME280;10804;48.988;2.408;2023-05-23T10:39:36;101514.69;;;18.61;59.37
21290;BME280;10804;48.988;2.408;2023-05-23T10:42:10;101522.50;;;18.64;59.33
21290;BME280;10804;48.988;2.408;2023-05-23T10:44:38;101513.66;;;18.65;59.23
21290;BME280;10804;48.988;2.408;2023-05-23T10:47:06;101518.78;;;18.68;59.24
21290;BME280;10804;48.988;2.408;2023-05-23T10:49:38;101516.22;;;18.66;59.22
21290;BME280;10804;48.988;2.408;2023-05-23T10:52:06;101521.50;;;18.66;59.20
21290;BME280;10804;48.988;2.408;2023-05-23T10:54:34;101532.66;;;18.73;59.33
21290;BME280;10804;48.988;2.408;2023-05-23T10:57:02;101519.44;;;18.73;59.12
21290;BME280;10804;48.988;2.408;2023-05-23T10:59:30;101523.78;;;18.74;59.38
21290;BME280;10804;48.988;2.408;2023-05-23T11:01:59;101521.09;;;18.75;59.18
21290;BME280;10804;48.988;2.408;2023-05-23T11:04:28;101518.34;;;18.77;59.09
21290;BME280;10804;48.988;2.408;2023-05-23T11:06:57;101523.63;;;18.77;59.18
21290;BME280;10804;48.988;2.408;2023-05-23T11:09:24;101519.22;;;18.77;59.10
21290;BME280;10804;48.988;2.408;2023-05-23T11:11:59;101524.50;;;18.77;59.11
21290;BME280;10804;48.988;2.408;2023-05-23T11:14:32;101519.94;;;18.81;59.19
21290;BME280;10804;48.988;2.408;2023-05-23T11:17:02;101513.72;;;18.82;59.13
21290;BME280;10804;48.988;2.408;2023-05-23T11:19:54;101516.19;;;18.85;59.06
21290;BME280;10804;48.988;2.408;2023-05-23T11:22:26;101514.38;;;18.87;58.99
21290;BME280;10804;48.988;2.408;2023-05-23T11:24:54;101503.78;;;18.87;59.03
21290;BME280;10804;48.988;2.408;2023-05-23T11:27:26;101496.47;;;18.92;59.03
21290;BME280;10804;48.988;2.408;2023-05-23T11:30:01;101494.66;;;18.94;59.13
21290;BME280;10804;48.988;2.408;2023-05-23T11:32:29;101508.47;;;18.99;59.04
21290;BME280;10804;48.988;2.408;2023-05-23T11:35:03;101491.91;;;18.95;59.13
21290;BME280;10804;48.988;2.408;2023-05-23T11:37:31;101512.59;;;19.04;58.97
21290;BME280;10804;48.988;2.408;2023-05-23T11:40:00;101499.31;;;19.06;59.04
21290;BME280;10804;48.988;2.408;2023-05-23T11:42:46;101494.03;;;19.06;58.99
21290;BME280;10804;48.988;2.408;2023-05-23T11:45:13;101492.03;;;19.11;58.98
21290;BME280;10804;48.988;2.408;2023-05-23T11:47:43;101491.25;;;19.09;58.91
21290;BME280;10804;48.988;2.408;2023-05-23T11:50:13;101496.31;;;19.13;58.79
21290;BME280;10804;48.988;2.408;2023-05-23T11:52:41;101499.81;;;19.14;58.87
21290;BME280;10804;48.988;2.408;2023-05-23T11:55:08;101495.22;;;19.17;58.70
21290;BME280;10804;48.988;2.408;2023-05-23T11:57:37;101485.59;;;19.16;58.74
21290;BME280;10804;48.988;2.408;2023-05-23T12:00:06;101484.59;;;19.19;58.74
21290;BME280;10804;48.988;2.408;2023-05-23T12:02:37;101498.47;;;19.24;58.87
21290;BME280;10804;48.988;2.408;2023-05-23T12:05:08;101484.31;;;19.25;58.75
21290;BME280;10804;48.988;2.408;2023-05-23T12:07:40;101476.16;;;19.29;58.81
21290;BME280;10804;48.988;2.408;2023-05-23T12:10:08;101479.66;;;19.30;58.60
21290;BME280;10804;48.988;2.408;2023-05-23T12:12:37;101475.00;;;19.35;58.55
21290;BME280;10804;48.988;2.408;2023-05-23T12:15:05;101479.13;;;19.40;58.45
21290;BME280;10804;48.988;2.408;2023-05-23T12:17:33;101473.69;;;19.43;58.40
21290;BME280;10804;48.988;2.408;2023-05-23T12:20:03;101476.94;;;19.48;58.47
21290;BME280;10804;48.988;2.408;2023-05-23T12:22:31;101471.59;;;19.50;58.33
21290;BME280;10804;48.988;2.408;2023-05-23T12:25:01;101474.69;;;19.58;58.29
21290;BME280;10804;48.988;2.408;2023-05-23T12:27:34;101466.59;;;19.61;58.48
21290;BME280;10804;48.988;2.408;2023-05-23T12:30:06;101475.00;;;19.69;58.33
21290;BME280;10804;48.988;2.408;2023-05-23T12:32:38;101475.63;;;19.74;58.30
21290;BME280;10804;48.988;2.408;2023-05-23T12:35:07;101475.38;;;19.78;58.35
21290;BME280;10804;48.988;2.408;2023-05-23T12:37:39;101463.63;;;19.84;58.26
21290;BME280;10804;48.988;2.408;2023-05-23T12:40:19;101469.53;;;19.89;58.27
21290;BME280;10804;48.988;2.408;2023-05-23T12:42:49;101471.88;;;19.95;58.27
21290;BME280;10804;48.988;2.408;2023-05-23T12:45:18;101474.97;;;20.02;58.18
21290;BME280;10804;48.988;2.408;2023-05-23T12:47:45;101467.69;;;20.08;58.07
21290;BME280;10804;48.988;2.408;2023-05-23T12:50:12;101470.91;;;20.13;57.95
21290;BME280;10804;48.988;2.408;2023-05-23T12:52:42;101458.31;;;20.17;57.90
21290;BME280;10804;48.988;2.408;2023-05-23T12:55:10;101458.13;;;20.20;58.19
21290;BME280;10804;48.988;2.408;2023-05-23T12:57:40;101467.63;;;20.24;57.85
21290;BME280;10804;48.988;2.408;2023-05-23T13:00:09;101471.50;;;20.34;57.75
21290;BME280;10804;48.988;2.408;2023-05-23T13:02:40;101467.66;;;20.40;57.57
21290;BME280;10804;48.988;2.408;2023-05-23T13:05:08;101458.53;;;20.45;57.71
21290;BME280;10804;48.988;2.408;2023-05-23T13:07:35;101456.41;;;20.52;57.50
21290;BME280;10804;48.988;2.408;2023-05-23T13:10:03;101454.34;;;20.57;57.51